Time;durP1;ratioP1;P1;durP2;ratioP2;P2;SDS_P1;SDS_P2;PMS_P1;PMS_P2;Temp;Humidity;BMP_temperature;BMP_pressure;BME280_temperature;BME280_humidity;BME280_pressure;Samples;Min_cycle;Max_cycle;Signal;HPM_P1;HPM_P2
2021/06/09 00:02:06;;;;;;;2.20;2.00;;;17.00;99.90;;;;;;5074481;28;20686;-79
2021/06/09 00:04:32;;;;;;;2.08;1.90;;;17.00;99.90;;;;;;5076331;28;20618;-80
2021/06/09 00:06:57;;;;;;;2.50;2.28;;;16.90;99.90;;;;;;5056949;28;20975;-79
2021/06/09 00:09:23;;;;;;;2.72;2.33;;;16.90;99.90;;;;;;5056072;28;20182;-79
2021/06/09 00:11:49;;;;;;;3.22;2.50;;;16.80;99.90;;;;;;5057237;28;20242;-79
2021/06/09 00:14:16;;;;;;;2.33;2.10;;;16.80;99.90;;;;;;5055985;28;20209;-80
2021/06/09 00:16:44;;;;;;;2.70;2.50;;;16.80;99.90;;;;;;5057443;28;20206;-81
2021/06/09 00:19:10;;;;;;;2.08;1.90;;;16.80;99.90;;;;;;5057290;28;20292;-80
2021/06/09 00:21:36;;;;;;;2.80;2.00;;;16.70;99.90;;;;;;5075050;28;20205;-80
2021/06/09 00:24:01;;;;;;;3.17;1.92;;;16.70;99.90;;;;;;5076414;28;20177;-81
2021/06/09 00:26:27;;;;;;;2.17;1.98;;;16.70;99.90;;;;;;5074947;28;20271;-79
2021/06/09 00:28:53;;;;;;;2.33;1.90;;;16.80;99.90;;;;;;5056432;28;20185;-81
2021/06/09 00:31:18;;;;;;;2.47;2.05;;;16.80;99.90;;;;;;5054378;28;20272;-79
2021/06/09 00:33:45;;;;;;;2.05;1.85;;;16.70;99.90;;;;;;5072831;28;20209;-80
2021/06/09 00:36:10;;;;;;;2.35;2.10;;;16.70;99.90;;;;;;5073063;28;20684;-80
2021/06/09 00:38:36;;;;;;;2.67;2.20;;;16.70;99.90;;;;;;5073427;28;20232;-79
2021/06/09 00:41:02;;;;;;;2.42;2.22;;;16.50;99.90;;;;;;5073076;28;20204;-81
2021/06/09 00:43:34;;;;;;;4.75;2.55;;;16.50;99.90;;;;;;5073092;28;20182;-79
2021/06/09 00:46:10;;;;;;;2.33;2.13;;;16.40;99.90;;;;;;5055429;28;20325;-81
2021/06/09 00:48:41;;;;;;;2.22;2.03;;;16.40;99.90;;;;;;5073253;28;20181;-79
2021/06/09 00:51:12;;;;;;;3.30;1.92;;;16.40;99.90;;;;;;5073459;28;20678;-79
2021/06/09 00:53:41;;;;;;;2.47;2.28;;;16.40;99.90;;;;;;5073418;28;20867;-80
2021/06/09 00:56:12;;;;;;;2.42;2.20;;;16.30;99.90;;;;;;5056186;28;20209;-79
2021/06/09 00:58:40;;;;;;;3.20;2.10;;;16.30;99.90;;;;;;5055384;28;20181;-79
2021/06/09 01:01:08;;;;;;;2.05;1.88;;;16.20;99.90;;;;;;5072562;28;20201;-79
2021/06/09 01:03:34;;;;;;;2.22;2.00;;;16.10;99.90;;;;;;5071923;28;20651;-79
2021/06/09 01:06:02;;;;;;;3.33;1.83;;;16.10;99.90;;;;;;5054498;28;20220;-80
2021/06/09 01:08:29;;;;;;;1.60;1.50;;;16.10;99.90;;;;;;5071973;28;20177;-79
2021/06/09 01:10:54;;;;;;;2.30;2.10;;;16.00;99.90;;;;;;5071758;28;20177;-79
2021/06/09 01:13:22;;;;;;;2.08;1.90;;;15.90;99.90;;;;;;5053782;28;20609;-80
2021/06/09 01:15:49;;;;;;;2.00;1.80;;;15.90;99.90;;;;;;5072328;28;20225;-79
2021/06/09 01:18:14;;;;;;;1.92;1.73;;;15.90;99.90;;;;;;5053268;28;20181;-79
2021/06/09 01:20:40;;;;;;;2.30;1.95;;;15.80;99.90;;;;;;5073314;28;20204;-80
2021/06/09 01:23:06;;;;;;;3.13;1.90;;;15.80;99.90;;;;;;5071160;28;20182;-79
2021/06/09 01:25:33;;;;;;;2.13;1.92;;;15.80;99.90;;;;;;5072865;28;20274;-79
2021/06/09 01:28:00;;;;;;;1.85;1.67;;;15.80;99.90;;;;;;5054369;28;20178;-79
2021/06/09 01:30:25;;;;;;;2.13;1.92;;;15.70;99.90;;;;;;5054579;28;20185;-79
2021/06/09 01:32:52;;;;;;;2.67;2.13;;;15.60;99.90;;;;;;5070918;28;20178;-79
2021/06/09 01:35:19;;;;;;;5.75;1.92;;;15.60;99.90;;;;;;5071619;28;20206;-79
2021/06/09 01:37:45;;;;;;;1.83;1.60;;;15.50;99.90;;;;;;5071042;28;20182;-79
2021/06/09 01:40:14;;;;;;;2.72;1.90;;;15.50;99.90;;;;;;5049566;28;20226;-79
2021/06/09 01:42:40;;;;;;;2.13;1.92;;;15.50;99.90;;;;;;5067966;28;20193;-81
2021/06/09 01:45:08;;;;;;;2.78;1.83;;;15.50;99.90;;;;;;5066866;28;20490;-79
2021/06/09 01:47:34;;;;;;;1.60;1.30;;;15.60;99.90;;;;;;5067581;28;20221;-79
2021/06/09 01:50:03;;;;;;;1.80;1.70;;;15.60;99.90;;;;;;5068076;28;20178;-80
2021/06/09 01:52:29;;;;;;;2.13;1.92;;;15.50;99.90;;;;;;5066144;28;20190;-79
2021/06/09 01:54:55;;;;;;;2.15;1.95;;;15.50;99.90;;;;;;5067070;28;20201;-79
2021/06/09 01:57:20;;;;;;;1.50;1.40;;;15.60;99.90;;;;;;5048796;28;20181;-78
2021/06/09 01:59:48;;;;;;;2.00;1.67;;;15.60;99.90;;;;;;5066830;28;20193;-80
2021/06/09 02:02:14;;;;;;;3.22;1.88;;;15.50;99.90;;;;;;5066738;28;20194;-78
2021/06/09 02:04:41;;;;;;;1.80;1.38;;;15.60;99.90;;;;;;5065991;28;20178;-80
2021/06/09 02:07:07;;;;;;;2.13;1.60;;;15.60;99.90;;;;;;5065723;28;20197;-80
2021/06/09 02:09:35;;;;;;;1.98;1.80;;;15.60;99.90;;;;;;5065519;28;20178;-80
2021/06/09 02:12:02;;;;;;;1.92;1.80;;;15.60;99.90;;;;;;5065877;28;20181;-81
2021/06/09 02:14:28;;;;;;;2.00;1.80;;;15.50;99.90;;;;;;5048911;28;20296;-80
2021/06/09 02:16:54;;;;;;;2.70;1.92;;;15.50;99.90;;;;;;5068552;28;20178;-81
2021/06/09 02:19:23;;;;;;;8.48;2.10;;;15.50;99.90;;;;;;5049268;28;20185;-81
2021/06/09 02:21:50;;;;;;;2.28;1.80;;;15.50;99.90;;;;;;5049052;28;20537;-81
2021/06/09 02:24:17;;;;;;;1.92;1.73;;;15.40;99.90;;;;;;5053355;28;20188;-79
2021/06/09 02:26:43;;;;;;;3.78;2.17;;;15.50;99.90;;;;;;5052931;28;20201;-80
2021/06/09 02:29:10;;;;;;;1.75;1.60;;;15.50;99.90;;;;;;5071855;28;20197;-80
2021/06/09 02:31:47;;;;;;;2.65;1.83;;;15.40;99.90;;;;;;5053670;28;20178;-79
2021/06/09 02:34:18;;;;;;;2.17;1.70;;;15.40;99.90;;;;;;5052855;28;20292;-80
2021/06/09 02:36:44;;;;;;;2.35;2.08;;;15.30;99.90;;;;;;5071608;28;20197;-78
2021/06/09 02:39:11;;;;;;;1.92;1.83;;;15.20;99.90;;;;;;5053643;28;20185;-79
2021/06/09 02:41:37;;;;;;;2.33;1.70;;;15.20;99.90;;;;;;5071565;28;20614;-80
2021/06/09 02:44:04;;;;;;;1.80;1.63;;;15.20;99.90;;;;;;5071753;28;20185;-78
2021/06/09 02:46:34;;;;;;;2.15;1.67;;;15.10;99.90;;;;;;5052912;28;20205;-80
2021/06/09 02:49:22;;;;;;;1.70;1.60;;;15.10;99.90;;;;;;5053012;28;20846;-80
2021/06/09 02:51:55;;;;;;;2.13;1.90;;;15.10;99.90;;;;;;5052766;28;20239;-79
2021/06/09 02:54:33;;;;;;;2.20;2.00;;;15.10;99.90;;;;;;5070397;28;20272;-80
2021/06/09 02:56:58;;;;;;;2.22;2.03;;;15.00;99.90;;;;;;5071937;28;20182;-79
2021/06/09 02:59:42;;;;;;;4.50;2.42;;;15.00;99.90;;;;;;5071037;28;20243;-80
2021/06/09 03:02:22;;;;;;;2.63;2.10;;;15.00;99.90;;;;;;5071028;28;20183;-79
2021/06/09 03:04:50;;;;;;;2.10;1.90;;;14.80;99.90;;;;;;5071155;28;20213;-79
2021/06/09 03:07:28;;;;;;;2.10;1.90;;;14.90;99.90;;;;;;5069789;28;20292;-80
2021/06/09 03:10:11;;;;;;;2.13;1.90;;;14.80;99.90;;;;;;5052784;28;20865;-80
2021/06/09 03:12:46;;;;;;;2.25;2.05;;;14.80;99.90;;;;;;5071084;28;20376;-80
2021/06/09 03:15:16;;;;;;;1.75;1.17;;;14.80;99.90;;;;;;5052726;28;20569;-79
2021/06/09 03:18:09;;;;;;;1.75;1.65;;;14.70;99.90;;;;;;5071311;28;20262;-79
2021/06/09 03:20:50;;;;;;;1.70;1.60;;;14.70;99.90;;;;;;5070951;28;20250;-80
2021/06/09 03:23:40;;;;;;;1.60;1.42;;;14.70;99.90;;;;;;5052429;28;21172;-80
2021/06/09 03:26:23;;;;;;;1.50;1.40;;;14.70;99.90;;;;;;5052795;28;20197;-80
2021/06/09 03:28:54;;;;;;;1.67;1.58;;;14.60;99.90;;;;;;5052672;28;20578;-81
2021/06/09 03:31:24;;;;;;;1.58;1.48;;;14.60;99.90;;;;;;5070473;28;20186;-80
2021/06/09 03:33:52;;;;;;;1.30;1.20;;;14.60;99.90;;;;;;5051532;28;20178;-81
2021/06/09 03:36:33;;;;;;;2.38;1.58;;;14.60;99.90;;;;;;5068735;28;20205;-80
2021/06/09 03:39:03;;;;;;;1.60;1.50;;;14.50;99.90;;;;;;5070674;28;20204;-81
2021/06/09 03:41:40;;;;;;;2.08;1.88;;;14.60;99.90;;;;;;5070540;28;20193;-80
2021/06/09 03:49:08;;;;;;;1.33;1.23;;;14.70;99.90;;;;;;5078483;22;20296;-79
2021/06/09 03:51:40;;;;;;;1.98;1.30;;;14.70;99.90;;;;;;5071567;28;20681;-81
2021/06/09 03:54:07;;;;;;;1.77;1.63;;;14.70;99.90;;;;;;5069292;28;20173;-81
2021/06/09 03:56:34;;;;;;;2.25;1.80;;;14.80;99.90;;;;;;5069192;28;20561;-78
2021/06/09 03:59:02;;;;;;;1.40;1.30;;;14.80;99.90;;;;;;5050732;28;20178;-81
2021/06/09 04:01:35;;;;;;;1.60;1.50;;;14.90;99.90;;;;;;5051301;28;20213;-81
2021/06/09 04:04:03;;;;;;;1.42;1.17;;;15.00;99.90;;;;;;5068623;28;20272;-78
2021/06/09 04:06:30;;;;;;;3.05;1.45;;;14.90;99.90;;;;;;5050554;28;20229;-79
2021/06/09 04:08:59;;;;;;;1.60;1.50;;;14.90;99.90;;;;;;5067472;28;20173;-79
2021/06/09 04:11:26;;;;;;;1.70;1.40;;;15.00;99.90;;;;;;5068294;28;20182;-79
2021/06/09 04:13:53;;;;;;;1.20;1.10;;;15.10;99.90;;;;;;5067255;28;20186;-80
2021/06/09 04:16:22;;;;;;;1.35;1.25;;;15.10;99.90;;;;;;5066886;28;20205;-81
2021/06/09 04:18:49;;;;;;;1.40;1.30;;;15.10;99.90;;;;;;5067199;28;20181;-78
2021/06/09 04:21:16;;;;;;;1.20;1.10;;;15.10;99.90;;;;;;5050977;28;20206;-78
2021/06/09 04:23:42;;;;;;;1.40;1.30;;;15.20;99.90;;;;;;5050640;28;20177;-80
2021/06/09 04:26:12;;;;;;;2.10;1.20;;;15.30;99.90;;;;;;5069653;28;20877;-80
2021/06/09 04:28:38;;;;;;;1.10;1.00;;;15.30;99.90;;;;;;5066405;28;20177;-80
2021/06/09 04:31:05;;;;;;;1.80;1.20;;;15.40;99.90;;;;;;5050051;28;20689;-79
2021/06/09 04:33:32;;;;;;;0.98;0.77;;;15.50;99.90;;;;;;5049963;28;20185;-80
2021/06/09 04:35:57;;;;;;;1.10;1.00;;;15.60;99.90;;;;;;5068228;28;20258;-79
2021/06/09 04:38:23;;;;;;;0.80;0.80;;;15.70;99.90;;;;;;5050210;28;20284;-81
2021/06/09 04:40:51;;;;;;;1.33;1.10;;;15.70;99.90;;;;;;5068441;28;20201;-78
2021/06/09 04:43:17;;;;;;;1.00;0.90;;;15.80;99.90;;;;;;5068936;28;20181;-80
2021/06/09 04:45:43;;;;;;;2.13;1.05;;;15.90;99.90;;;;;;5067567;28;20201;-79
2021/06/09 04:48:14;;;;;;;1.35;1.05;;;16.00;99.90;;;;;;5049631;28;20193;-81
2021/06/09 04:50:41;;;;;;;0.98;0.90;;;16.20;99.90;;;;;;5050189;28;20204;-81
2021/06/09 04:53:15;;;;;;;1.20;0.93;;;16.30;99.90;;;;;;5047085;28;20239;-81
2021/06/09 04:55:44;;;;;;;1.42;1.25;;;16.50;99.90;;;;;;5048852;28;20197;-80
2021/06/09 04:58:12;;;;;;;1.25;1.02;;;16.70;99.90;;;;;;5066641;28;20185;-81
2021/06/09 05:00:39;;;;;;;1.65;1.27;;;16.80;99.90;;;;;;5049827;28;20204;-80
2021/06/09 05:03:05;;;;;;;3.40;1.45;;;16.90;99.90;;;;;;5068136;28;20797;-79
2021/06/09 05:05:30;;;;;;;1.60;1.50;;;16.90;99.90;;;;;;5067733;28;20205;-78
2021/06/09 05:07:56;;;;;;;1.40;1.30;;;16.90;99.90;;;;;;5066999;28;20256;-79
2021/06/09 05:10:22;;;;;;;1.17;1.08;;;16.90;99.90;;;;;;5050194;28;20215;-80
2021/06/09 05:12:56;;;;;;;1.05;1.05;;;17.00;99.90;;;;;;5067236;28;20185;-81
2021/06/09 05:15:25;;;;;;;2.08;1.38;;;17.00;99.90;;;;;;5066445;28;20202;-80
2021/06/09 05:17:51;;;;;;;1.42;1.20;;;17.00;99.90;;;;;;5048644;28;20181;-78
2021/06/09 05:20:26;;;;;;;1.48;1.08;;;17.00;99.90;;;;;;5049299;28;20750;-79
2021/06/09 05:23:02;;;;;;;2.38;1.15;;;17.10;99.90;;;;;;5048082;28;20636;-79
2021/06/09 05:25:29;;;;;;;1.38;1.27;;;17.20;99.90;;;;;;5048615;28;20233;-80
2021/06/09 05:27:57;;;;;;;1.30;1.20;;;17.30;99.90;;;;;;5066905;28;20204;-80
2021/06/09 05:30:24;;;;;;;1.17;1.08;;;17.40;99.90;;;;;;5048767;28;20181;-80
2021/06/09 05:32:53;;;;;;;0.98;0.90;;;17.60;99.90;;;;;;5067593;28;20205;-80
2021/06/09 05:35:19;;;;;;;1.70;1.15;;;17.70;99.90;;;;;;5067519;28;20213;-80
2021/06/09 05:37:45;;;;;;;3.65;1.17;;;17.80;99.90;;;;;;5069784;28;21105;-79
2021/06/09 05:40:15;;;;;;;1.63;0.98;;;17.80;99.90;;;;;;5069199;28;20207;-78
2021/06/09 05:42:41;;;;;;;1.00;0.90;;;17.90;99.90;;;;;;5069595;28;21074;-78
2021/06/09 05:45:07;;;;;;;1.30;0.85;;;17.90;99.90;;;;;;5068837;28;20232;-78
2021/06/09 05:47:39;;;;;;;1.13;0.98;;;17.90;99.90;;;;;;5066529;28;20231;-79
2021/06/09 05:50:20;;;;;;;1.30;1.20;;;17.90;99.90;;;;;;5067570;28;20177;-79
2021/06/09 05:52:47;;;;;;;1.45;1.00;;;17.80;99.90;;;;;;5050109;28;20204;-79
2021/06/09 05:55:20;;;;;;;1.30;1.20;;;17.70;99.90;;;;;;5068453;28;20292;-79
2021/06/09 05:57:46;;;;;;;1.80;1.30;;;17.60;99.90;;;;;;5072460;28;20184;-78
2021/06/09 06:00:13;;;;;;;1.67;1.20;;;17.60;99.90;;;;;;5073566;28;20687;-79
2021/06/09 06:02:40;;;;;;;1.65;1.50;;;17.70;99.90;;;;;;5055896;28;20185;-79
2021/06/09 06:05:07;;;;;;;1.60;1.50;;;17.80;99.90;;;;;;5054438;28;20285;-79
2021/06/09 06:07:33;;;;;;;1.67;1.58;;;17.90;99.90;;;;;;5072870;28;20702;-79
2021/06/09 06:09:59;;;;;;;2.08;1.50;;;18.10;99.90;;;;;;5072827;28;20208;-79
2021/06/09 06:12:26;;;;;;;1.77;1.63;;;18.40;99.90;;;;;;5073270;28;20181;-79
2021/06/09 06:14:52;;;;;;;1.23;1.00;;;18.50;99.90;;;;;;5072716;28;20200;-79
2021/06/09 06:17:18;;;;;;;1.42;1.17;;;18.70;99.90;;;;;;5054157;28;20258;-79
2021/06/09 06:19:48;;;;;;;1.02;1.00;;;18.60;99.90;;;;;;5072715;28;20178;-78
2021/06/09 06:22:13;;;;;;;0.85;0.80;;;18.60;99.90;;;;;;5055490;28;20178;-79
2021/06/09 06:24:41;;;;;;;2.13;1.27;;;18.50;99.90;;;;;;5054381;28;20268;-79
2021/06/09 06:27:12;;;;;;;1.20;1.10;;;18.50;99.90;;;;;;5073180;28;20201;-78
2021/06/09 06:29:38;;;;;;;1.98;1.25;;;18.40;99.90;;;;;;5072632;28;20232;-79
2021/06/09 06:32:09;;;;;;;1.25;1.15;;;18.30;99.90;;;;;;5051867;28;20181;-79
2021/06/09 06:34:48;;;;;;;1.42;1.27;;;18.40;99.90;;;;;;5070061;28;20200;-79
2021/06/09 06:37:15;;;;;;;1.75;1.35;;;18.60;99.90;;;;;;5070270;28;20177;-79
2021/06/09 06:39:41;;;;;;;1.40;1.00;;;18.80;99.90;;;;;;5052335;28;20181;-79
2021/06/09 06:42:08;;;;;;;0.93;0.93;;;18.80;99.90;;;;;;5069926;28;20534;-79
2021/06/09 06:44:34;;;;;;;1.23;1.13;;;18.90;99.90;;;;;;5052482;28;20178;-79
2021/06/09 06:47:01;;;;;;;1.15;1.08;;;19.00;99.90;;;;;;5070043;28;20712;-79
2021/06/09 06:49:28;;;;;;;1.08;1.00;;;19.00;99.90;;;;;;5052407;28;20201;-78
2021/06/09 06:51:55;;;;;;;1.45;0.98;;;19.20;99.90;;;;;;5070301;28;20185;-78
2021/06/09 06:54:21;;;;;;;1.25;1.08;;;19.30;99.90;;;;;;5068712;28;20185;-79
2021/06/09 06:56:52;;;;;;;1.27;0.98;;;19.60;99.90;;;;;;5051677;28;20576;-79
2021/06/09 06:59:21;;;;;;;2.05;1.38;;;20.10;99.90;;;;;;5051619;28;20647;-78
2021/06/09 07:01:46;;;;;;;2.58;0.90;;;20.30;99.90;;;;;;5069612;28;20545;-79
2021/06/09 07:04:15;;;;;;;1.48;1.08;;;20.60;99.90;;;;;;5069737;28;20184;-79
2021/06/09 07:06:43;;;;;;;1.00;0.90;;;20.90;99.90;;;;;;5068869;28;20544;-79
2021/06/09 07:09:10;;;;;;;1.25;0.85;;;21.10;99.90;;;;;;5067092;28;20220;-78
2021/06/09 07:11:43;;;;;;;1.23;1.10;;;21.20;99.90;;;;;;5068518;28;20607;-78
2021/06/09 07:16:58;;;;;;;1.10;1.00;;;21.60;99.90;;;;;;5062296;22;20230;-73
2021/06/09 07:19:24;;;;;;;0.90;0.90;;;21.90;99.90;;;;;;5053824;28;20557;-70
2021/06/09 07:21:50;;;;;;;1.70;1.20;;;21.90;99.90;;;;;;5054439;28;20195;-69
2021/06/09 07:24:17;;;;;;;1.23;1.13;;;22.10;99.90;;;;;;5044647;28;20190;-69
2021/06/09 07:26:45;;;;;;;1.52;1.27;;;21.90;99.90;;;;;;5059236;28;20191;-70
2021/06/09 07:29:11;;;;;;;1.20;1.10;;;22.00;99.90;;;;;;5048200;28;20250;-72
2021/06/09 07:31:40;;;;;;;3.45;1.35;;;22.00;99.90;;;;;;5054505;28;20185;-72
2021/06/09 07:34:06;;;;;;;1.98;1.30;;;22.10;99.90;;;;;;5056389;28;20178;-69
2021/06/09 07:36:42;;;;;;;1.30;1.17;;;21.60;99.90;;;;;;5051524;28;20233;-73
2021/06/09 07:39:18;;;;;;;1.42;1.33;;;21.60;99.90;;;;;;5055054;28;20620;-71
2021/06/09 07:41:45;;;;;;;1.35;1.25;;;21.60;99.90;;;;;;5052075;28;20729;-72
2021/06/09 07:44:15;;;;;;;1.90;1.30;;;21.60;99.90;;;;;;5056473;28;20527;-70
2021/06/09 07:46:43;;;;;;;1.50;1.40;;;21.60;99.90;;;;;;5069459;28;20250;-71
2021/06/09 07:49:10;;;;;;;1.20;1.00;;;21.70;99.90;;;;;;5057502;28;20194;-70
2021/06/09 07:51:37;;;;;;;1.33;1.23;;;21.80;99.90;;;;;;5052957;28;20594;-71
2021/06/09 07:54:05;;;;;;;1.30;1.20;;;22.00;99.90;;;;;;5051964;28;20178;-71
2021/06/09 07:56:33;;;;;;;1.40;1.30;;;22.30;99.90;;;;;;5046621;28;20182;-74
2021/06/09 07:59:02;;;;;;;1.60;1.50;;;22.40;99.90;;;;;;5050082;28;20202;-70
2021/06/09 08:01:28;;;;;;;1.52;1.40;;;22.30;99.90;;;;;;5053664;28;20205;-72
2021/06/09 08:03:54;;;;;;;1.70;1.27;;;22.30;99.90;;;;;;5054521;28;20221;-70
2021/06/09 08:06:20;;;;;;;1.25;1.15;;;22.40;99.90;;;;;;5058990;28;20185;-71
2021/06/09 08:08:46;;;;;;;1.33;1.23;;;22.40;99.90;;;;;;5055237;28;20186;-73
2021/06/09 08:11:13;;;;;;;1.63;1.40;;;22.50;99.90;;;;;;5062552;28;20260;-72
2021/06/09 08:13:41;;;;;;;1.23;1.10;;;22.60;99.90;;;;;;5045399;28;20273;-73
2021/06/09 08:16:14;;;;;;;3.42;2.25;;;22.90;99.90;;;;;;5048602;28;20194;-71
2021/06/09 08:18:41;;;;;;;4.95;2.22;;;22.70;99.90;;;;;;5056148;28;20208;-73
2021/06/09 08:21:26;;;;;;;11.20;5.40;;;22.90;99.90;;;;;;5064237;28;20198;-72
2021/06/09 08:23:52;;;;;;;1.70;1.60;;;22.90;99.90;;;;;;5050452;28;20168;-73
2021/06/09 08:26:20;;;;;;;1.65;1.55;;;23.00;99.90;;;;;;5049548;28;20178;-73
2021/06/09 08:28:47;;;;;;;1.60;1.50;;;22.90;99.90;;;;;;5046297;28;20201;-73
2021/06/09 08:31:18;;;;;;;1.52;1.42;;;23.10;99.90;;;;;;5055401;28;20196;-74
2021/06/09 08:33:44;;;;;;;1.50;1.40;;;23.10;99.90;;;;;;5042967;28;20204;-71
2021/06/09 08:36:16;;;;;;;1.67;1.40;;;23.20;99.90;;;;;;5058358;28;20189;-71
2021/06/09 08:38:45;;;;;;;1.70;1.60;;;23.30;99.90;;;;;;5050470;28;20244;-73
2021/06/09 08:41:13;;;;;;;2.10;1.73;;;23.50;99.90;;;;;;5054069;28;20190;-73
2021/06/09 08:43:41;;;;;;;1.70;1.60;;;23.60;99.90;;;;;;5053999;28;20624;-74
2021/06/09 08:46:09;;;;;;;2.72;2.00;;;23.50;99.90;;;;;;5054020;28;20171;-71
2021/06/09 08:48:36;;;;;;;1.70;1.60;;;23.50;99.90;;;;;;5054585;28;20798;-73
2021/06/09 08:51:04;;;;;;;2.03;1.73;;;23.40;99.90;;;;;;5057144;28;20223;-72
2021/06/09 08:53:33;;;;;;;1.98;1.75;;;23.20;99.90;;;;;;5051818;28;20194;-72
2021/06/09 08:56:00;;;;;;;1.92;1.73;;;23.30;99.90;;;;;;5048333;28;20205;-72
2021/06/09 08:58:26;;;;;;;1.98;1.42;;;23.40;99.90;;;;;;5046659;28;20201;-71
2021/06/09 09:00:52;;;;;;;2.05;1.80;;;23.50;99.90;;;;;;5052905;28;20200;-72
2021/06/09 09:03:18;;;;;;;1.70;1.60;;;23.50;99.90;;;;;;5048569;28;20179;-71
2021/06/09 09:05:43;;;;;;;1.90;1.70;;;23.50;99.90;;;;;;5053380;28;20188;-74
2021/06/09 09:08:09;;;;;;;2.17;1.98;;;23.70;99.90;;;;;;5056710;28;20209;-71
2021/06/09 09:10:36;;;;;;;2.55;2.30;;;23.70;99.90;;;;;;5047565;28;20181;-70
2021/06/09 09:13:04;;;;;;;2.33;1.77;;;23.70;99.90;;;;;;5052104;28;20269;-71
2021/06/09 09:15:29;;;;;;;2.22;2.03;;;23.60;99.90;;;;;;5056893;28;20196;-71
2021/06/09 09:17:58;;;;;;;2.42;2.22;;;23.50;99.90;;;;;;5054111;28;20165;-71
2021/06/09 09:20:28;;;;;;;1.85;1.70;;;23.40;99.90;;;;;;5054251;28;20550;-70
2021/06/09 09:22:57;;;;;;;2.10;1.90;;;23.40;99.90;;;;;;5049944;28;20253;-71
2021/06/09 09:25:26;;;;;;;2.85;2.05;;;23.40;99.90;;;;;;5051306;28;20205;-73
2021/06/09 09:28:04;;;;;;;2.58;2.05;;;23.30;99.90;;;;;;5050085;28;20182;-72
2021/06/09 09:30:32;;;;;;;2.45;2.25;;;23.20;99.90;;;;;;5056907;28;20193;-72
2021/06/09 09:32:59;;;;;;;2.25;2.08;;;23.00;99.90;;;;;;5054308;28;20173;-73
2021/06/09 09:35:31;;;;;;;2.90;2.20;;;23.00;99.90;;;;;;5054413;28;20202;-72
2021/06/09 09:38:14;;;;;;;2.15;2.00;;;23.10;99.90;;;;;;5052584;28;20182;-72
2021/06/09 09:40:57;;;;;;;2.03;1.85;;;23.20;99.90;;;;;;5067195;28;20592;-72
2021/06/09 09:43:53;;;;;;;2.17;1.55;;;23.40;99.90;;;;;;5052641;28;20194;-72
2021/06/09 09:46:27;;;;;;;2.33;1.40;;;23.60;99.90;;;;;;5051643;28;20170;-72
2021/06/09 09:49:13;;;;;;;2.03;1.90;;;23.60;99.90;;;;;;5052668;28;20201;-73
2021/06/09 09:51:45;;;;;;;2.38;1.73;;;23.60;99.90;;;;;;5047684;28;20254;-72
2021/06/09 09:54:11;;;;;;;2.00;1.83;;;23.80;99.90;;;;;;5052376;28;20630;-73
2021/06/09 09:56:42;;;;;;;3.28;2.72;;;23.80;99.90;;;;;;5049532;28;20616;-72
2021/06/09 09:59:10;;;;;;;1.88;1.73;;;23.80;99.90;;;;;;5049776;28;20952;-72
2021/06/09 10:01:41;;;;;;;1.95;1.75;;;23.70;99.90;;;;;;5050445;28;20233;-74
2021/06/09 10:04:08;;;;;;;2.03;1.58;;;23.90;99.90;;;;;;5049629;28;20181;-72
2021/06/09 10:06:45;;;;;;;1.75;1.65;;;24.20;99.90;;;;;;5049374;28;20193;-74
2021/06/09 10:09:16;;;;;;;1.83;1.58;;;24.40;99.90;;;;;;5046232;28;20198;-73
2021/06/09 10:11:43;;;;;;;1.60;1.50;;;24.40;99.90;;;;;;5049852;28;20243;-72
2021/06/09 10:14:19;;;;;;;1.77;1.67;;;24.70;99.90;;;;;;5044317;28;20174;-71
2021/06/09 10:16:47;;;;;;;1.85;1.60;;;25.20;99.90;;;;;;5046825;28;20204;-72
2021/06/09 10:19:14;;;;;;;1.73;1.63;;;25.30;99.90;;;;;;5051962;28;20190;-73
2021/06/09 10:22:02;;;;;;;2.25;2.05;;;25.10;99.90;;;;;;5047066;28;20727;-73
2021/06/09 10:24:29;;;;;;;2.33;2.00;;;25.00;99.90;;;;;;5048263;28;20587;-73
2021/06/09 10:27:00;;;;;;;1.77;1.67;;;24.70;99.90;;;;;;5070092;28;20193;-72
2021/06/09 10:29:33;;;;;;;1.88;1.67;;;24.50;99.90;;;;;;5048583;28;20342;-73
2021/06/09 10:32:02;;;;;;;2.88;1.63;;;24.30;99.90;;;;;;5068357;28;20181;-70
2021/06/09 10:34:32;;;;;;;1.92;1.60;;;24.20;99.90;;;;;;5050688;28;20185;-72
2021/06/09 10:36:59;;;;;;;1.77;1.60;;;24.20;99.90;;;;;;5048321;28;20294;-72
2021/06/09 10:39:28;;;;;;;1.77;1.67;;;24.40;99.90;;;;;;5050113;28;20197;-73
2021/06/09 10:41:57;;;;;;;2.03;1.83;;;24.60;99.90;;;;;;5049992;28;20346;-73
2021/06/09 10:44:26;;;;;;;1.80;1.70;;;24.90;99.90;;;;;;5052650;28;20186;-72
2021/06/09 10:46:57;;;;;;;1.92;1.70;;;25.20;99.90;;;;;;5058764;28;20174;-73
2021/06/09 10:49:24;;;;;;;1.45;1.35;;;25.60;99.90;;;;;;5072429;28;20669;-73
2021/06/09 10:51:54;;;;;;;2.05;1.60;;;25.70;99.90;;;;;;5052334;28;20181;-73
2021/06/09 10:54:24;;;;;;;1.75;1.65;;;25.90;99.90;;;;;;5051039;28;20185;-72
2021/06/09 10:56:52;;;;;;;2.13;1.67;;;26.00;99.90;;;;;;5056257;28;20173;-73
2021/06/09 10:59:24;;;;;;;1.67;1.58;;;26.30;99.90;;;;;;5051934;28;20287;-73
2021/06/09 11:01:55;;;;;;;1.80;1.70;;;26.60;99.90;;;;;;5045962;28;20202;-74
2021/06/09 11:04:22;;;;;;;3.03;2.05;;;26.50;99.90;;;;;;5073409;28;20182;-73
2021/06/09 11:06:52;;;;;;;4.05;2.55;;;26.50;99.90;;;;;;5068474;28;20182;-73
2021/06/09 11:09:34;;;;;;;1.90;1.80;;;26.60;99.90;;;;;;5052971;28;20346;-70
2021/06/09 11:12:12;;;;;;;1.73;1.63;;;26.60;99.90;;;;;;5053711;28;20634;-73
2021/06/09 11:14:54;;;;;;;1.90;1.80;;;26.50;99.90;;;;;;5057243;28;20174;-71
2021/06/09 11:17:46;;;;;;;2.05;1.90;;;26.30;99.90;;;;;;5059157;28;20165;-71
2021/06/09 11:20:40;;;;;;;2.20;2.00;;;26.30;99.90;;;;;;5045305;28;20202;-73
2021/06/09 11:23:25;;;;;;;1.83;1.70;;;26.30;99.90;;;;;;5052651;28;20192;-72
2021/06/09 11:25:51;;;;;;;1.80;1.70;;;26.50;99.90;;;;;;5038803;22;20218;-79
2021/06/09 11:28:17;;;;;;;1.73;1.63;;;26.60;99.90;;;;;;4938806;28;20190;-78
2021/06/09 11:31:06;;;;;;;2.40;2.20;;;26.50;99.90;;;;;;4955313;28;20650;-79
2021/06/09 11:33:40;;;;;;;1.60;1.50;;;26.60;99.90;;;;;;4942639;29;20687;-79
2021/06/09 11:36:19;;;;;;;2.20;2.00;;;26.40;99.90;;;;;;4951378;28;20804;-78
2021/06/09 11:38:53;;;;;;;2.00;1.80;;;26.30;99.90;;;;;;5012399;28;20264;-80
2021/06/09 11:41:26;;;;;;;1.63;1.52;;;26.50;99.90;;;;;;4931043;29;20316;-78
2021/06/09 11:43:57;;;;;;;2.35;1.70;;;26.50;99.90;;;;;;4930909;28;20190;-79
2021/06/09 11:46:29;;;;;;;2.17;1.98;;;26.60;99.90;;;;;;4932199;28;20238;-80
2021/06/09 11:49:05;;;;;;;2.58;2.17;;;26.50;99.90;;;;;;4933920;28;20178;-79
2021/06/09 11:51:42;;;;;;;1.80;1.70;;;26.30;99.90;;;;;;4933670;29;20182;-80
2021/06/09 11:54:25;;;;;;;3.92;2.20;;;26.30;99.90;;;;;;4932176;29;20281;-78
2021/06/09 11:56:58;;;;;;;2.08;1.88;;;26.30;99.90;;;;;;4931859;28;20293;-78
2021/06/09 11:59:33;;;;;;;1.92;1.83;;;26.40;99.90;;;;;;4932580;28;20191;-78
2021/06/09 12:02:01;;;;;;;2.25;2.15;;;26.50;99.90;;;;;;4932050;28;20235;-77
2021/06/09 12:04:39;;;;;;;2.92;2.40;;;26.60;99.90;;;;;;4930231;28;20194;-77
2021/06/09 12:07:11;;;;;;;3.03;2.38;;;26.70;99.90;;;;;;4925842;29;20186;-77
2021/06/09 12:09:44;;;;;;;2.30;2.10;;;26.80;99.90;;;;;;4925767;28;20444;-76
2021/06/09 12:12:17;;;;;;;2.30;2.10;;;26.80;99.90;;;;;;4912066;28;20199;-77
2021/06/09 12:14:48;;;;;;;2.17;2.08;;;26.80;99.90;;;;;;4924632;28;20186;-77
2021/06/09 12:17:54;;;;;;;2.60;2.40;;;26.80;99.90;;;;;;4925239;29;20189;-77
2021/06/09 12:20:21;;;;;;;2.55;2.35;;;26.70;99.90;;;;;;5026222;28;20211;-77
2021/06/09 12:22:50;;;;;;;2.40;2.20;;;26.90;99.90;;;;;;5022772;28;20226;-78
2021/06/09 12:25:31;;;;;;;2.78;2.50;;;26.90;99.90;;;;;;4975240;28;20229;-78
2021/06/09 12:28:12;;;;;;;2.60;2.40;;;26.80;99.90;;;;;;4925262;28;20682;-77
2021/06/09 12:30:42;;;;;;;2.67;2.47;;;26.50;99.90;;;;;;4926781;28;20193;-78
2021/06/09 12:33:08;;;;;;;2.53;2.33;;;26.70;99.90;;;;;;4942031;28;20212;-79
2021/06/09 12:35:34;;;;;;;2.72;2.53;;;26.90;99.90;;;;;;4929028;29;20210;-79
2021/06/09 12:38:03;;;;;;;2.83;2.63;;;27.00;99.90;;;;;;4928533;29;20243;-78
2021/06/09 12:40:31;;;;;;;2.67;2.47;;;27.10;99.90;;;;;;4929565;28;20228;-76
2021/06/09 12:42:59;;;;;;;3.03;2.47;;;27.10;99.90;;;;;;4929413;28;20187;-76
2021/06/09 12:45:27;;;;;;;2.50;2.30;;;27.30;99.90;;;;;;4928313;28;20209;-78
2021/06/09 12:47:55;;;;;;;2.03;1.92;;;27.40;99.90;;;;;;4925106;28;20684;-76
2021/06/09 12:50:31;;;;;;;2.70;2.47;;;27.40;99.90;;;;;;4924797;29;20186;-76
2021/06/09 12:52:59;;;;;;;3.05;2.85;;;27.70;99.90;;;;;;4923940;28;20546;-77
2021/06/09 12:55:28;;;;;;;3.15;2.75;;;27.50;99.90;;;;;;4926751;29;20210;-78
2021/06/09 12:57:59;;;;;;;2.75;2.55;;;27.60;99.90;;;;;;4927401;28;20183;-78
2021/06/09 13:00:39;;;;;;;7.80;4.03;;;27.60;99.90;;;;;;4930462;28;20210;-75
2021/06/09 13:03:17;;;;;;;2.90;2.65;;;27.60;99.90;;;;;;4926927;28;20767;-76
2021/06/09 13:05:53;;;;;;;4.65;3.35;;;27.60;99.90;;;;;;4922717;28;20515;-78
2021/06/09 13:08:21;;;;;;;3.05;2.75;;;27.50;99.90;;;;;;4924999;28;20975;-76
2021/06/09 13:10:48;;;;;;;4.20;3.15;;;27.50;99.90;;;;;;4924182;28;20240;-77